sensor_id;sensor_type;location;lat;lon;timestamp;pressure;altitude;pressure_sealevel;temperature;humidity
80333;BME280;69652;51.864;-2.246;2023-08-12T00:01:48;101360.09;;;17.97;74.06
80333;BME280;69652;51.864;-2.246;2023-08-12T00:04:14;101368.78;;;17.87;74.20
80333;BME280;69652;51.864;-2.246;2023-08-12T00:06:41;101372.25;;;17.76;74.22
80333;BME280;69652;51.864;-2.246;2023-08-12T00:09:06;101367.66;;;17.67;74.89
80333;BME280;69652;51.864;-2.246;2023-08-12T00:11:34;101360.72;;;17.61;74.31
80333;BME280;69652;51.864;-2.246;2023-08-12T00:13:59;101360.59;;;17.58;75.12
80333;BME280;69652;51.864;-2.246;2023-08-12T00:16:25;101362.97;;;17.59;73.83
80333;BME280;69652;51.864;-2.246;2023-08-12T00:18:50;101357.56;;;17.51;75.01
80333;BME280;69652;51.864;-2.246;2023-08-12T00:21:16;101356.63;;;17.47;74.72
80333;BME280;69652;51.864;-2.246;2023-08-12T00:23:41;101359.38;;;17.47;74.40
80333;BME280;69652;51.864;-2.246;2023-08-12T00:26:08;101353.53;;;17.48;74.46
80333;BME280;69652;51.864;-2.246;2023-08-12T00:28:34;101338.56;;;17.46;74.11
80333;BME280;69652;51.864;-2.246;2023-08-12T00:31:00;101350.69;;;17.45;73.85
80333;BME280;69652;51.864;-2.246;2023-08-12T00:33:25;101353.53;;;17.48;74.73
80333;BME280;69652;51.864;-2.246;2023-08-12T00:35:51;101357.50;;;17.39;74.53
80333;BME280;69652;51.864;-2.246;2023-08-12T00:38:22;101358.28;;;17.39;74.39
80333;BME280;69652;51.864;-2.246;2023-08-12T00:40:48;101358.22;;;17.27;74.94
80333;BME280;69652;51.864;-2.246;2023-08-12T00:43:14;101349.31;;;17.30;75.44
80333;BME280;69652;51.864;-2.246;2023-08-12T00:45:40;101351.28;;;17.29;75.02
80333;BME280;69652;51.864;-2.246;2023-08-12T00:48:08;101344.72;;;17.22;75.33
80333;BME280;69652;51.864;-2.246;2023-08-12T00:50:35;101344.16;;;17.28;75.28
80333;BME280;69652;51.864;-2.246;2023-08-12T00:53:01;101345.63;;;17.26;74.79
80333;BME280;69652;51.864;-2.246;2023-08-12T00:55:26;101343.75;;;17.18;74.64
80333;BME280;69652;51.864;-2.246;2023-08-12T00:57:52;101347.50;;;17.13;75.38
80333;BME280;69652;51.864;-2.246;2023-08-12T01:00:18;101339.13;;;17.10;74.72
80333;BME280;69652;51.864;-2.246;2023-08-12T01:02:46;101333.78;;;17.13;75.44
80333;BME280;69652;51.864;-2.246;2023-08-12T01:05:14;101335.59;;;17.09;75.56
80333;BME280;69652;51.864;-2.246;2023-08-12T01:07:42;101327.06;;;17.02;75.65
80333;BME280;69652;51.864;-2.246;2023-08-12T01:10:08;101321.25;;;17.04;75.46
80333;BME280;69652;51.864;-2.246;2023-08-12T01:12:50;101316.41;;;17.01;75.40
80333;BME280;69652;51.864;-2.246;2023-08-12T01:15:20;101323.41;;;16.98;75.10
80333;BME280;69652;51.864;-2.246;2023-08-12T01:17:47;101321.31;;;16.95;75.52
80333;BME280;69652;51.864;-2.246;2023-08-12T01:20:17;101311.75;;;17.01;74.96
80333;BME280;69652;51.864;-2.246;2023-08-12T01:22:55;101320.66;;;16.98;74.34
80333;BME280;69652;51.864;-2.246;2023-08-12T01:25:23;101321.81;;;16.88;75.61
80333;BME280;69652;51.864;-2.246;2023-08-12T01:27:49;101310.03;;;16.88;75.51
80333;BME280;69652;51.864;-2.246;2023-08-12T01:30:15;101307.66;;;16.86;75.24
80333;BME280;69652;51.864;-2.246;2023-08-12T01:32:52;101309.38;;;16.91;74.62
80333;BME280;69652;51.864;-2.246;2023-08-12T01:37:57;101305.50;;;16.92;74.19
80333;BME280;69652;51.864;-2.246;2023-08-12T01:40:24;101302.63;;;16.88;74.44
80333;BME280;69652;51.864;-2.246;2023-08-12T01:42:50;101298.97;;;16.84;74.88
80333;BME280;69652;51.864;-2.246;2023-08-12T01:45:18;101300.09;;;16.83;75.34
80333;BME280;69652;51.864;-2.246;2023-08-12T01:47:44;101298.41;;;16.91;74.24
80333;BME280;69652;51.864;-2.246;2023-08-12T01:50:10;101295.34;;;16.92;75.01
80333;BME280;69652;51.864;-2.246;2023-08-12T01:52:35;101295.63;;;17.00;74.39
80333;BME280;69652;51.864;-2.246;2023-08-12T01:55:01;101290.34;;;16.94;74.25
80333;BME280;69652;51.864;-2.246;2023-08-12T01:57:26;101296.63;;;16.95;74.72
80333;BME280;69652;51.864;-2.246;2023-08-12T01:59:52;101284.53;;;16.96;74.38
80333;BME280;69652;51.864;-2.246;2023-08-12T02:02:17;101280.25;;;16.86;74.53
80333;BME280;69652;51.864;-2.246;2023-08-12T02:04:43;101279.75;;;16.84;74.92
80333;BME280;69652;51.864;-2.246;2023-08-12T02:07:09;101278.00;;;16.80;75.14
80333;BME280;69652;51.864;-2.246;2023-08-12T02:09:35;101280.94;;;16.75;75.33
80333;BME280;69652;51.864;-2.246;2023-08-12T02:12:00;101282.75;;;16.71;75.25
80333;BME280;69652;51.864;-2.246;2023-08-12T02:14:25;101272.56;;;16.71;74.91
80333;BME280;69652;51.864;-2.246;2023-08-12T02:16:51;101263.28;;;16.64;75.40
80333;BME280;69652;51.864;-2.246;2023-08-12T02:19:16;101264.06;;;16.64;75.67
80333;BME280;69652;51.864;-2.246;2023-08-12T02:21:42;101265.22;;;16.63;75.71
80333;BME280;69652;51.864;-2.246;2023-08-12T02:24:08;101264.41;;;16.63;75.02
80333;BME280;69652;51.864;-2.246;2023-08-12T02:26:33;101263.41;;;16.58;75.54
80333;BME280;69652;51.864;-2.246;2023-08-12T02:28:59;101265.69;;;16.56;75.35
80333;BME280;69652;51.864;-2.246;2023-08-12T02:31:24;101253.44;;;16.54;75.89
80333;BME280;69652;51.864;-2.246;2023-08-12T02:33:50;101256.06;;;16.50;75.11
80333;BME280;69652;51.864;-2.246;2023-08-12T02:36:16;101253.31;;;16.50;75.32
80333;BME280;69652;51.864;-2.246;2023-08-12T02:38:41;101245.91;;;16.51;75.48
80333;BME280;69652;51.864;-2.246;2023-08-12T02:41:07;101248.97;;;16.49;74.93
80333;BME280;69652;51.864;-2.246;2023-08-12T02:43:32;101252.84;;;16.48;75.27
80333;BME280;69652;51.864;-2.246;2023-08-12T02:45:58;101249.78;;;16.50;75.74
80333;BME280;69652;51.864;-2.246;2023-08-12T02:48:23;101248.97;;;16.49;75.35
80333;BME280;69652;51.864;-2.246;2023-08-12T02:50:49;101238.81;;;16.50;75.85
80333;BME280;69652;51.864;-2.246;2023-08-12T02:53:15;101234.63;;;16.44;75.57
80333;BME280;69652;51.864;-2.246;2023-08-12T02:55:41;101228.69;;;16.42;76.07
80333;BME280;69652;51.864;-2.246;2023-08-12T02:58:06;101225.81;;;16.38;76.92
80333;BME280;69652;51.864;-2.246;2023-08-12T03:00:31;101220.50;;;16.33;76.91
80333;BME280;69652;51.864;-2.246;2023-08-12T03:02:57;101213.91;;;16.34;77.36
80333;BME280;69652;51.864;-2.246;2023-08-12T03:05:22;101215.34;;;16.32;76.71
80333;BME280;69652;51.864;-2.246;2023-08-12T03:07:48;101209.53;;;16.33;77.33
80333;BME280;69652;51.864;-2.246;2023-08-12T03:10:14;101208.59;;;16.29;76.92
80333;BME280;69652;51.864;-2.246;2023-08-12T03:12:40;101204.94;;;16.25;77.86
80333;BME280;69652;51.864;-2.246;2023-08-12T03:15:07;101217.00;;;16.24;78.15
80333;BME280;69652;51.864;-2.246;2023-08-12T03:17:32;101213.94;;;16.25;77.37
80333;BME280;69652;51.864;-2.246;2023-08-12T03:19:58;101202.19;;;16.25;77.32
80333;BME280;69652;51.864;-2.246;2023-08-12T03:22:27;101208.47;;;16.25;77.27
80333;BME280;69652;51.864;-2.246;2023-08-12T03:24:52;101204.28;;;16.28;78.18
80333;BME280;69652;51.864;-2.246;2023-08-12T03:27:18;101204.59;;;16.27;77.53
80333;BME280;69652;51.864;-2.246;2023-08-12T03:29:43;101202.66;;;16.27;77.63
80333;BME280;69652;51.864;-2.246;2023-08-12T03:32:09;101201.84;;;16.27;78.22
80333;BME280;69652;51.864;-2.246;2023-08-12T03:34:34;101203.00;;;16.25;77.31
80333;BME280;69652;51.864;-2.246;2023-08-12T03:37:00;101201.38;;;16.24;78.02
80333;BME280;69652;51.864;-2.246;2023-08-12T03:39:26;101208.16;;;16.27;77.61
80333;BME280;69652;51.864;-2.246;2023-08-12T03:41:51;101200.72;;;16.28;77.59
80333;BME280;69652;51.864;-2.246;2023-08-12T03:44:18;101203.59;;;16.31;77.87
80333;BME280;69652;51.864;-2.246;2023-08-12T03:46:43;101197.59;;;16.38;77.72
80333;BME280;69652;51.864;-2.246;2023-08-12T03:49:08;101192.94;;;16.38;77.43
80333;BME280;69652;51.864;-2.246;2023-08-12T03:51:34;101196.13;;;16.40;77.41
80333;BME280;69652;51.864;-2.246;2023-08-12T03:53:59;101185.84;;;16.37;77.80
80333;BME280;69652;51.864;-2.246;2023-08-12T03:56:25;101192.47;;;16.36;77.12
80333;BME280;69652;51.864;-2.246;2023-08-12T03:58:51;101188.09;;;16.35;78.11
80333;BME280;69652;51.864;-2.246;2023-08-12T04:01:16;101193.59;;;16.35;78.57
80333;BME280;69652;51.864;-2.246;2023-08-12T04:03:42;101186.81;;;16.33;77.50
80333;BME280;69652;51.864;-2.246;2023-08-12T04:06:07;101187.47;;;16.30;78.25
80333;BME280;69652;51.864;-2.246;2023-08-12T04:08:33;101187.16;;;16.31;77.99
80333;BME280;69652;51.864;-2.246;2023-08-12T04:10:59;101177.66;;;16.29;77.69
80333;BME280;69652;51.864;-2.246;2023-08-12T04:13:25;101175.28;;;16.27;77.70
80333;BME280;69652;51.864;-2.246;2023-08-12T04:15:50;101172.19;;;16.29;78.05
80333;BME280;69652;51.864;-2.246;2023-08-12T04:18:18;101182.00;;;16.30;77.73
80333;BME280;69652;51.864;-2.246;2023-08-12T04:20:45;101179.09;;;16.35;77.98
80333;BME280;69652;51.864;-2.246;2023-08-12T04:23:12;101173.28;;;16.36;78.17
80333;BME280;69652;51.864;-2.246;2023-08-12T04:25:38;101169.53;;;16.41;77.23
80333;BME280;69652;51.864;-2.246;2023-08-12T04:28:03;101158.25;;;16.42;78.10
80333;BME280;69652;51.864;-2.246;2023-08-12T04:30:29;101168.06;;;16.43;77.67
80333;BME280;69652;51.864;-2.246;2023-08-12T04:32:54;101158.88;;;16.48;78.28
80333;BME280;69652;51.864;-2.246;2023-08-12T04:35:20;101154.34;;;16.52;78.39
80333;BME280;69652;51.864;-2.246;2023-08-12T04:37:45;101159.13;;;16.55;77.31
80333;BME280;69652;51.864;-2.246;2023-08-12T04:40:11;101154.44;;;16.55;77.14
80333;BME280;69652;51.864;-2.246;2023-08-12T04:42:36;101159.44;;;16.62;77.05
80333;BME280;69652;51.864;-2.246;2023-08-12T04:45:02;101155.69;;;16.67;76.84
80333;BME280;69652;51.864;-2.246;2023-08-12T04:47:28;101157.31;;;16.68;76.77
80333;BME280;69652;51.864;-2.246;2023-08-12T04:49:54;101151.81;;;16.68;76.87
80333;BME280;69652;51.864;-2.246;2023-08-12T04:52:20;101156.50;;;16.67;76.86
80333;BME280;69652;51.864;-2.246;2023-08-12T04:54:46;101149.28;;;16.63;77.21
80333;BME280;69652;51.864;-2.246;2023-08-12T04:57:11;101152.16;;;16.66;77.65
80333;BME280;69652;51.864;-2.246;2023-08-12T04:59:37;101152.28;;;16.70;77.00
80333;BME280;69652;51.864;-2.246;2023-08-12T05:02:02;101144.22;;;16.73;77.13
80333;BME280;69652;51.864;-2.246;2023-08-12T05:04:28;101146.94;;;16.73;77.10
80333;BME280;69652;51.864;-2.246;2023-08-12T05:06:53;101150.16;;;16.75;77.43
80333;BME280;69652;51.864;-2.246;2023-08-12T05:09:19;101135.44;;;16.80;76.95
80333;BME280;69652;51.864;-2.246;2023-08-12T05:11:44;101141.22;;;16.87;76.13
80333;BME280;69652;51.864;-2.246;2023-08-12T05:14:10;101152.19;;;16.87;76.09
80333;BME280;69652;51.864;-2.246;2023-08-12T05:16:35;101145.41;;;16.84;76.35
80333;BME280;69652;51.864;-2.246;2023-08-12T05:19:00;101150.25;;;16.87;75.71
80333;BME280;69652;51.864;-2.246;2023-08-12T05:21:26;101148.56;;;16.95;76.26
80333;BME280;69652;51.864;-2.246;2023-08-12T05:23:52;101143.06;;;16.95;76.26
80333;BME280;69652;51.864;-2.246;2023-08-12T05:26:17;101145.47;;;16.96;76.22
80333;BME280;69652;51.864;-2.246;2023-08-12T05:28:43;101134.19;;;16.98;76.10
80333;BME280;69652;51.864;-2.246;2023-08-12T05:31:08;101133.63;;;17.05;75.06
80333;BME280;69652;51.864;-2.246;2023-08-12T05:33:34;101138.78;;;17.06;75.17
80333;BME280;69652;51.864;-2.246;2023-08-12T05:35:59;101136.59;;;17.12;75.65
80333;BME280;69652;51.864;-2.246;2023-08-12T05:38:24;101134.81;;;17.16;74.91
80333;BME280;69652;51.864;-2.246;2023-08-12T05:40:50;101140.97;;;17.13;75.20
80333;BME280;69652;51.864;-2.246;2023-08-12T05:43:16;101148.75;;;17.11;74.24
80333;BME280;69652;51.864;-2.246;2023-08-12T05:45:41;101132.16;;;17.07;75.07
80333;BME280;69652;51.864;-2.246;2023-08-12T05:48:07;101134.22;;;17.10;75.15
80333;BME280;69652;51.864;-2.246;2023-08-12T05:50:33;101133.53;;;17.13;74.76
80333;BME280;69652;51.864;-2.246;2023-08-12T05:52:58;101125.25;;;17.22;74.87
80333;BME280;69652;51.864;-2.246;2023-08-12T05:55:24;101121.59;;;17.30;73.81
80333;BME280;69652;51.864;-2.246;2023-08-12T05:57:49;101130.75;;;17.34;74.30
80333;BME280;69652;51.864;-2.246;2023-08-12T06:00:15;101125.50;;;17.41;73.26
80333;BME280;69652;51.864;-2.246;2023-08-12T06:02:40;101129.53;;;17.44;73.26
80333;BME280;69652;51.864;-2.246;2023-08-12T06:05:06;101128.38;;;17.45;72.86
80333;BME280;69652;51.864;-2.246;2023-08-12T06:07:32;101130.88;;;17.38;73.55
80333;BME280;69652;51.864;-2.246;2023-08-12T06:09:57;101119.69;;;17.43;73.11
80333;BME280;69652;51.864;-2.246;2023-08-12T06:12:23;101120.03;;;17.41;73.05
80333;BME280;69652;51.864;-2.246;2023-08-12T06:14:48;101114.41;;;17.38;73.08
80333;BME280;69652;51.864;-2.246;2023-08-12T06:17:13;101111.44;;;17.43;73.59
80333;BME280;69652;51.864;-2.246;2023-08-12T06:19:39;101103.56;;;17.41;72.95
80333;BME280;69652;51.864;-2.246;2023-08-12T06:22:05;101113.72;;;17.41;73.75
80333;BME280;69652;51.864;-2.246;2023-08-12T06:24:31;101118.75;;;17.39;73.52
80333;BME280;69652;51.864;-2.246;2023-08-12T06:26:56;101118.38;;;17.28;73.16
80333;BME280;69652;51.864;-2.246;2023-08-12T06:29:22;101114.50;;;17.29;73.77
80333;BME280;69652;51.864;-2.246;2023-08-12T06:31:47;101126.16;;;17.26;73.87
80333;BME280;69652;51.864;-2.246;2023-08-12T06:34:12;101131.56;;;17.35;73.47
80333;BME280;69652;51.864;-2.246;2023-08-12T06:36:38;101131.56;;;17.35;74.03
80333;BME280;69652;51.864;-2.246;2023-08-12T06:39:03;101128.56;;;17.27;73.87
80333;BME280;69652;51.864;-2.246;2023-08-12T06:41:29;101127.41;;;17.28;74.45
80333;BME280;69652;51.864;-2.246;2023-08-12T06:43:54;101126.06;;;17.35;73.60
80333;BME280;69652;51.864;-2.246;2023-08-12T06:46:20;101132.03;;;17.49;73.10
80333;BME280;69652;51.864;-2.246;2023-08-12T06:48:45;101135.91;;;17.48;73.28
80333;BME280;69652;51.864;-2.246;2023-08-12T06:51:11;101137.19;;;17.50;73.41
80333;BME280;69652;51.864;-2.246;2023-08-12T06:53:37;101135.25;;;17.51;73.46
80333;BME280;69652;51.864;-2.246;2023-08-12T06:56:03;101126.72;;;17.64;72.92
80333;BME280;69652;51.864;-2.246;2023-08-12T06:58:28;101135.19;;;17.72;72.58
80333;BME280;69652;51.864;-2.246;2023-08-12T07:00:54;101129.94;;;17.66;73.06
80333;BME280;69652;51.864;-2.246;2023-08-12T07:03:20;101127.66;;;17.68;72.81
80333;BME280;69652;51.864;-2.246;2023-08-12T07:05:45;101129.28;;;17.82;72.37
80333;BME280;69652;51.864;-2.246;2023-08-12T07:08:11;101132.91;;;17.74;72.97
80333;BME280;69652;51.864;-2.246;2023-08-12T07:10:40;101132.81;;;17.82;72.71
80333;BME280;69652;51.864;-2.246;2023-08-12T07:13:05;101121.94;;;17.86;72.49
80333;BME280;69652;51.864;-2.246;2023-08-12T07:15:31;101122.75;;;17.86;72.31
80333;BME280;69652;51.864;-2.246;2023-08-12T07:17:57;101129.50;;;18.01;71.61
80333;BME280;69652;51.864;-2.246;2023-08-12T07:20:25;101124.00;;;18.13;71.89
80333;BME280;69652;51.864;-2.246;2023-08-12T07:22:51;101123.09;;;18.09;71.45
80333;BME280;69652;51.864;-2.246;2023-08-12T07:25:16;101124.00;;;18.01;71.59
80333;BME280;69652;51.864;-2.246;2023-08-12T07:27:42;101115.53;;;18.18;71.52
80333;BME280;69652;51.864;-2.246;2023-08-12T07:30:08;101117.00;;;18.40;70.45
80333;BME280;69652;51.864;-2.246;2023-08-12T07:32:35;101117.13;;;18.31;70.51
80333;BME280;69652;51.864;-2.246;2023-08-12T07:35:01;101117.72;;;18.25;71.18
80333;BME280;69652;51.864;-2.246;2023-08-12T07:37:28;101113.78;;;18.50;70.46
80333;BME280;69652;51.864;-2.246;2023-08-12T07:39:54;101116.78;;;18.33;70.80
80333;BME280;69652;51.864;-2.246;2023-08-12T07:42:20;101113.34;;;18.36;70.38
80333;BME280;69652;51.864;-2.246;2023-08-12T07:44:45;101118.81;;;18.48;70.05
80333;BME280;69652;51.864;-2.246;2023-08-12T07:47:11;101109.16;;;18.54;70.21
80333;BME280;69652;51.864;-2.246;2023-08-12T07:49:37;101100.41;;;18.76;69.21
80333;BME280;69652;51.864;-2.246;2023-08-12T07:52:03;101099.28;;;18.77;68.65
80333;BME280;69652;51.864;-2.246;2023-08-12T07:54:29;101102.19;;;18.97;68.47
80333;BME280;69652;51.864;-2.246;2023-08-12T07:56:54;101112.53;;;19.16;67.84
80333;BME280;69652;51.864;-2.246;2023-08-12T07:59:20;101102.03;;;19.05;67.80
80333;BME280;69652;51.864;-2.246;2023-08-12T08:01:46;101099.50;;;19.28;66.95
80333;BME280;69652;51.864;-2.246;2023-08-12T08:04:11;101110.41;;;19.25;67.24
80333;BME280;69652;51.864;-2.246;2023-08-12T08:06:37;101110.06;;;19.26;67.27
80333;BME280;69652;51.864;-2.246;2023-08-12T08:09:02;101111.22;;;19.25;67.14
80333;BME280;69652;51.864;-2.246;2023-08-12T08:11:30;101114.06;;;19.01;67.83
80333;BME280;69652;51.864;-2.246;2023-08-12T08:13:57;101103.97;;;19.05;67.68
80333;BME280;69652;51.864;-2.246;2023-08-12T08:16:23;101105.28;;;18.95;68.21
80333;BME280;69652;51.864;-2.246;2023-08-12T08:18:48;101100.25;;;19.13;67.74
80333;BME280;69652;51.864;-2.246;2023-08-12T08:21:14;101102.78;;;19.18;67.53
80333;BME280;69652;51.864;-2.246;2023-08-12T08:23:41;101103.50;;;19.31;67.47
80333;BME280;69652;51.864;-2.246;2023-08-12T08:26:07;101088.38;;;19.53;66.71
80333;BME280;69652;51.864;-2.246;2023-08-12T08:28:32;101102.44;;;19.35;67.09
80333;BME280;69652;51.864;-2.246;2023-08-12T08:30:58;101108.47;;;19.25;66.26
80333;BME280;69652;51.864;-2.246;2023-08-12T08:33:25;101108.25;;;19.46;64.94
80333;BME280;69652;51.864;-2.246;2023-08-12T08:35:51;101104.91;;;19.68;65.14
80333;BME280;69652;51.864;-2.246;2023-08-12T08:38:16;101104.91;;;19.68;64.43
80333;BME280;69652;51.864;-2.246;2023-08-12T08:40:42;101104.81;;;19.65;63.97
80333;BME280;69652;51.864;-2.246;2023-08-12T08:43:08;101097.00;;;19.67;63.57
80333;BME280;69652;51.864;-2.246;2023-08-12T08:45:34;101101.88;;;19.73;63.67
80333;BME280;69652;51.864;-2.246;2023-08-12T08:48:01;101100.19;;;19.69;63.19
80333;BME280;69652;51.864;-2.246;2023-08-12T08:50:28;101101.88;;;19.73;63.66
80333;BME280;69652;51.864;-2.246;2023-08-12T08:52:55;101100.19;;;19.53;63.24
80333;BME280;69652;51.864;-2.246;2023-08-12T08:55:22;101095.56;;;19.73;63.36
80333;BME280;69652;51.864;-2.246;2023-08-12T08:57:48;101099.47;;;19.72;63.55
80333;BME280;69652;51.864;-2.246;2023-08-12T09:00:18;101099.31;;;19.80;62.68
80333;BME280;69652;51.864;-2.246;2023-08-12T09:02:45;101110.13;;;19.73;63.39
80333;BME280;69652;51.864;-2.246;2023-08-12T09:05:13;101096.38;;;19.73;62.63
80333;BME280;69652;51.864;-2.246;2023-08-12T09:07:41;101099.81;;;19.86;63.10
80333;BME280;69652;51.864;-2.246;2023-08-12T09:10:07;101104.53;;;20.01;62.29
80333;BME280;69652;51.864;-2.246;2023-08-12T09:12:33;101108.00;;;19.98;62.31
80333;BME280;69652;51.864;-2.246;2023-08-12T09:14:59;101099.28;;;19.96;62.63
80333;BME280;69652;51.864;-2.246;2023-08-12T09:17:25;101113.16;;;19.84;62.68
80333;BME280;69652;51.864;-2.246;2023-08-12T09:19:50;101114.50;;;19.74;63.02
80333;BME280;69652;51.864;-2.246;2023-08-12T09:22:17;101108.72;;;19.79;63.40
80333;BME280;69652;51.864;-2.246;2023-08-12T09:24:43;101116.69;;;20.16;62.81
80333;BME280;69652;51.864;-2.246;2023-08-12T09:27:08;101117.50;;;20.01;62.53
80333;BME280;69652;51.864;-2.246;2023-08-12T09:29:35;101120.84;;;20.26;61.97
80333;BME280;69652;51.864;-2.246;2023-08-12T09:32:11;101113.66;;;20.37;62.03
80333;BME280;69652;51.864;-2.246;2023-08-12T09:34:44;101113.63;;;20.21;63.00
80333;BME280;69652;51.864;-2.246;2023-08-12T09:37:12;101110.84;;;20.02;63.81
80333;BME280;69652;51.864;-2.246;2023-08-12T09:39:38;101115.66;;;19.89;64.10
80333;BME280;69652;51.864;-2.246;2023-08-12T09:42:04;101109.88;;;19.94;64.05
80333;BME280;69652;51.864;-2.246;2023-08-12T09:44:29;101110.59;;;19.91;64.64
80333;BME280;69652;51.864;-2.246;2023-08-12T09:46:58;101113.25;;;19.88;65.67
80333;BME280;69652;51.864;-2.246;2023-08-12T09:49:24;101106.13;;;20.02;65.48
80333;BME280;69652;51.864;-2.246;2023-08-12T09:51:51;101102.16;;;20.19;65.20
80333;BME280;69652;51.864;-2.246;2023-08-12T09:54:17;101108.78;;;19.99;66.37
80333;BME280;69652;51.864;-2.246;2023-08-12T09:56:43;101084.53;;;20.04;66.24
80333;BME280;69652;51.864;-2.246;2023-08-12T09:59:12;101090.13;;;20.43;65.51
80333;BME280;69652;51.864;-2.246;2023-08-12T10:01:40;101087.53;;;20.50;64.98
80333;BME280;69652;51.864;-2.246;2023-08-12T10:04:11;101080.69;;;21.02;62.05
80333;BME280;69652;51.864;-2.246;2023-08-12T10:06:38;101079.00;;;21.58;60.59
80333;BME280;69652;51.864;-2.246;2023-08-12T10:09:05;101076.13;;;22.57;57.68
80333;BME280;69652;51.864;-2.246;2023-08-12T10:11:34;101073.91;;;23.36;55.42
80333;BME280;69652;51.864;-2.246;2023-08-12T10:14:00;101083.81;;;22.70;55.80
80333;BME280;69652;51.864;-2.246;2023-08-12T10:16:29;101083.69;;;23.27;54.42
80333;BME280;69652;51.864;-2.246;2023-08-12T10:18:59;101079.47;;;23.40;54.42
80333;BME280;69652;51.864;-2.246;2023-08-12T10:21:26;101086.41;;;22.26;56.67
80333;BME280;69652;51.864;-2.246;2023-08-12T10:23:53;101080.47;;;21.52;58.06
80333;BME280;69652;51.864;-2.246;2023-08-12T10:26:19;101083.75;;;21.35;59.15
80333;BME280;69652;51.864;-2.246;2023-08-12T10:28:44;101076.97;;;21.55;58.97
80333;BME280;69652;51.864;-2.246;2023-08-12T10:31:11;101074.44;;;21.92;58.15
80333;BME280;69652;51.864;-2.246;2023-08-12T10:33:40;101080.63;;;22.68;56.31
80333;BME280;69652;51.864;-2.246;2023-08-12T10:36:07;101079.47;;;22.99;55.35
80333;BME280;69652;51.864;-2.246;2023-08-12T10:38:33;101067.91;;;23.31;54.27
80333;BME280;69652;51.864;-2.246;2023-08-12T10:41:21;101056.56;;;23.94;52.15
80333;BME280;69652;51.864;-2.246;2023-08-12T10:43:54;101046.41;;;23.58;52.63
80333;BME280;69652;51.864;-2.246;2023-08-12T10:49:10;101056.81;;;23.31;52.99
80333;BME280;69652;51.864;-2.246;2023-08-12T10:51:46;101065.72;;;23.10;53.07
80333;BME280;69652;51.864;-2.246;2023-08-12T10:54:26;101046.09;;;23.73;50.46
80333;BME280;69652;51.864;-2.246;2023-08-12T11:02:32;101050.31;;;24.04;49.46
80333;BME280;69652;51.864;-2.246;2023-08-12T11:05:09;101047.94;;;24.10;49.54
80333;BME280;69652;51.864;-2.246;2023-08-12T11:07:40;101054.50;;;23.81;50.71
80333;BME280;69652;51.864;-2.246;2023-08-12T11:10:13;101041.50;;;23.44;51.83
80333;BME280;69652;51.864;-2.246;2023-08-12T11:12:41;101066.06;;;23.05;52.71
80333;BME280;69652;51.864;-2.246;2023-08-12T11:15:07;101083.06;;;22.74;53.45
80333;BME280;69652;51.864;-2.246;2023-08-12T11:19:59;101087.50;;;21.73;57.30
80333;BME280;69652;51.864;-2.246;2023-08-12T11:22:25;101086.50;;;21.58;58.94
80333;BME280;69652;51.864;-2.246;2023-08-12T11:24:51;101089.50;;;21.49;59.70
80333;BME280;69652;51.864;-2.246;2023-08-12T11:27:18;101083.31;;;21.33;60.44
80333;BME280;69652;51.864;-2.246;2023-08-12T11:29:43;101101.28;;;21.23;61.19
80333;BME280;69652;51.864;-2.246;2023-08-12T11:32:09;101100.66;;;21.14;61.60
80333;BME280;69652;51.864;-2.246;2023-08-12T11:34:35;101112.81;;;21.10;62.14
80333;BME280;69652;51.864;-2.246;2023-08-12T11:37:03;101104.75;;;21.20;62.07
80333;BME280;69652;51.864;-2.246;2023-08-12T11:39:28;101104.53;;;21.29;62.37
80333;BME280;69652;51.864;-2.246;2023-08-12T11:41:54;101107.88;;;21.19;62.85
80333;BME280;69652;51.864;-2.246;2023-08-12T11:44:22;101105.81;;;21.16;63.40
80333;BME280;69652;51.864;-2.246;2023-08-12T11:46:48;101117.03;;;21.23;63.21
80333;BME280;69652;51.864;-2.246;2023-08-12T11:49:14;101101.31;;;21.27;62.63
80333;BME280;69652;51.864;-2.246;2023-08-12T11:51:40;101108.16;;;21.33;63.30
80333;BME280;69652;51.864;-2.246;2023-08-12T11:54:07;101091.22;;;21.57;62.26
80333;BME280;69652;51.864;-2.246;2023-08-12T11:56:32;101083.28;;;22.02;61.13
80333;BME280;69652;51.864;-2.246;2023-08-12T11:58:59;101076.16;;;22.27;60.35
80333;BME280;69652;51.864;-2.246;2023-08-12T12:01:24;101090.13;;;22.38;59.83
80333;BME280;69652;51.864;-2.246;2023-08-12T12:03:51;101097.44;;;22.83;59.18
80333;BME280;69652;51.864;-2.246;2023-08-12T12:06:17;101088.28;;;23.12;58.03
80333;BME280;69652;51.864;-2.246;2023-08-12T12:08:44;101087.03;;;23.91;55.78
80333;BME280;69652;51.864;-2.246;2023-08-12T12:11:10;101079.22;;;24.79;53.94
80333;BME280;69652;51.864;-2.246;2023-08-12T12:13:35;101089.91;;;24.70;53.33
80333;BME280;69652;51.864;-2.246;2023-08-12T12:16:01;101087.50;;;24.00;53.89
80333;BME280;69652;51.864;-2.246;2023-08-12T12:18:26;101078.63;;;24.35;53.56
80333;BME280;69652;51.864;-2.246;2023-08-12T12:20:58;101100.47;;;24.43;52.99
80333;BME280;69652;51.864;-2.246;2023-08-12T12:23:30;101090.13;;;24.37;53.33
80333;BME280;69652;51.864;-2.246;2023-08-12T12:26:00;101081.56;;;24.70;52.43
80333;BME280;69652;51.864;-2.246;2023-08-12T12:28:27;101077.78;;;25.39;50.07
80333;BME280;69652;51.864;-2.246;2023-08-12T12:30:53;101080.66;;;24.45;52.66
80333;BME280;69652;51.864;-2.246;2023-08-12T12:33:18;101085.88;;;23.92;54.85
80333;BME280;69652;51.864;-2.246;2023-08-12T12:35:44;101085.13;;;23.14;56.09
80333;BME280;69652;51.864;-2.246;2023-08-12T12:38:10;101088.50;;;22.96;57.33
80333;BME280;69652;51.864;-2.246;2023-08-12T12:40:36;101097.38;;;22.79;58.21
80333;BME280;69652;51.864;-2.246;2023-08-12T12:43:03;101091.75;;;22.42;59.42
80333;BME280;69652;51.864;-2.246;2023-08-12T12:45:28;101103.84;;;22.60;58.70
80333;BME280;69652;51.864;-2.246;2023-08-12T12:47:54;101098.97;;;21.97;59.34
80333;BME280;69652;51.864;-2.246;2023-08-12T12:50:19;101102.50;;;21.72;60.54